Time;durP1;ratioP1;P1;durP2;ratioP2;P2;SDS_P1;SDS_P2;PMS_P1;PMS_P2;Temp;Humidity;BMP_temperature;BMP_pressure;BME280_temperature;BME280_humidity;BME280_pressure;Samples;Min_cycle;Max_cycle;Signal;HPM_P1;HPM_P2
2022/08/17 00:01:31;;;;;;;3.97;3.58;;;;;;;20.53;100.00;98804.66;5048405;28;20237;-80
2022/08/17 00:04:18;;;;;;;3.42;3.13;;;;;;;20.51;100.00;98796.00;5046868;28;20249;-81
2022/08/17 00:06:45;;;;;;;3.78;3.38;;;;;;;20.50;100.00;98808.00;5048462;28;20233;-81
2022/08/17 00:09:16;;;;;;;3.60;3.30;;;;;;;20.46;100.00;98803.47;5051144;28;20248;-82
2022/08/17 00:11:46;;;;;;;3.90;3.17;;;;;;;20.43;100.00;98801.34;5034907;28;20224;-82
2022/08/17 00:14:33;;;;;;;3.42;3.13;;;;;;;20.41;100.00;98812.53;5046051;28;20315;-80
2022/08/17 00:17:02;;;;;;;4.13;3.50;;;;;;;20.40;100.00;98797.31;5024527;28;20682;-81
2022/08/17 00:19:31;;;;;;;3.70;3.40;;;;;;;20.36;100.00;98795.50;5031004;28;20228;-81
2022/08/17 00:21:59;;;;;;;3.57;3.27;;;;;;;20.35;100.00;98799.31;5022594;28;20226;-81
2022/08/17 00:24:46;;;;;;;3.75;3.45;;;;;;;20.33;100.00;98801.56;5028969;28;20242;-80
2022/08/17 00:27:12;;;;;;;3.85;3.55;;;;;;;20.30;100.00;98788.50;5026833;28;20252;-82
2022/08/17 00:29:39;;;;;;;3.90;3.60;;;;;;;20.28;100.00;98793.47;5030275;28;20228;-83
2022/08/17 00:32:06;;;;;;;3.90;3.60;;;;;;;20.24;100.00;98806.88;5021526;28;20252;-81
2022/08/17 00:34:53;;;;;;;4.45;3.80;;;;;;;20.18;100.00;98799.91;5032062;28;20222;-82
2022/08/17 00:37:19;;;;;;;3.55;3.25;;;;;;;20.11;100.00;98799.53;5030223;28;20321;-81
2022/08/17 00:39:46;;;;;;;4.25;3.85;;;;;;;20.03;100.00;98800.19;5027635;28;20263;-81
2022/08/17 00:42:15;;;;;;;4.18;3.88;;;;;;;19.94;100.00;98802.00;5027373;28;20226;-81
2022/08/17 00:44:41;;;;;;;4.30;3.97;;;;;;;19.88;100.00;98809.44;5023075;28;20233;-80
2022/08/17 00:47:08;;;;;;;4.07;3.63;;;;;;;19.83;100.00;98801.38;5024381;28;20233;-81
2022/08/17 00:49:34;;;;;;;4.00;3.70;;;;;;;19.78;100.00;98804.22;5029764;28;20234;-81
2022/08/17 00:52:07;;;;;;;4.20;3.90;;;;;;;19.73;100.00;98807.84;5038650;28;20251;-79
2022/08/17 00:54:40;;;;;;;4.30;3.97;;;;;;;19.69;100.00;98811.44;5026657;28;20272;-81
2022/08/17 00:57:10;;;;;;;4.47;3.90;;;;;;;19.60;100.00;98800.44;5022804;28;20235;-81
2022/08/17 00:59:41;;;;;;;4.03;3.65;;;;;;;19.59;100.00;98803.47;5030987;28;20296;-80
2022/08/17 01:02:11;;;;;;;4.78;3.95;;;;;;;19.57;100.00;98806.47;5023832;28;20233;-81
2022/08/17 01:04:38;;;;;;;4.53;4.23;;;;;;;19.55;100.00;98805.94;5026208;28;20599;-82
2022/08/17 01:07:05;;;;;;;4.40;3.97;;;;;;;19.52;100.00;98813.91;5030343;28;20240;-83
2022/08/17 01:09:32;;;;;;;5.37;4.60;;;;;;;19.48;100.00;98813.69;5027703;28;20232;-82
2022/08/17 01:11:59;;;;;;;5.27;4.50;;;;;;;19.44;100.00;98811.88;5031227;28;20228;-81
2022/08/17 01:14:26;;;;;;;4.40;4.10;;;;;;;19.39;100.00;98806.47;5031530;28;20277;-82
2022/08/17 01:16:54;;;;;;;5.23;4.73;;;;;;;19.34;100.00;98807.38;5031157;28;20761;-81
2022/08/17 01:19:28;;;;;;;4.33;4.03;;;;;;;19.29;100.00;98802.84;5025881;28;20242;-81
2022/08/17 01:22:09;;;;;;;5.03;4.63;;;;;;;19.26;100.00;98811.59;5034843;28;20294;-80
2022/08/17 01:24:46;;;;;;;4.87;4.47;;;;;;;19.18;100.00;98806.00;5034543;28;20261;-80
2022/08/17 01:27:14;;;;;;;5.30;4.80;;;;;;;19.09;100.00;98805.84;5026550;28;20284;-80
2022/08/17 01:29:47;;;;;;;4.80;4.40;;;;;;;19.07;100.00;98813.50;5031760;28;20224;-78
2022/08/17 01:32:14;;;;;;;6.03;4.80;;;;;;;19.01;100.00;98803.81;5030372;28;20330;-79
2022/08/17 01:34:41;;;;;;;5.90;5.40;;;;;;;18.97;100.00;98816.38;5033407;28;20231;-81
2022/08/17 01:37:17;;;;;;;5.00;4.60;;;;;;;18.92;100.00;98814.53;5028219;28;20234;-81
2022/08/17 01:39:50;;;;;;;5.30;4.80;;;;;;;18.86;100.00;98807.56;5032540;28;20246;-80
2022/08/17 01:42:28;;;;;;;5.37;4.87;;;;;;;18.84;100.00;98817.09;5027348;28;20241;-80
2022/08/17 01:44:57;;;;;;;5.23;4.73;;;;;;;18.80;100.00;98827.72;5026796;28;20304;-81
2022/08/17 01:47:24;;;;;;;5.03;4.63;;;;;;;18.79;100.00;98817.16;5036009;28;20257;-81
2022/08/17 01:49:51;;;;;;;4.60;4.20;;;;;;;18.77;100.00;98827.50;5024697;28;20238;-81
2022/08/17 01:52:18;;;;;;;5.43;4.40;;;;;;;18.73;100.00;98824.56;5032233;28;20241;-82
2022/08/17 01:54:46;;;;;;;4.63;4.23;;;;;;;18.71;100.00;98826.75;5034953;28;20240;-80
2022/08/17 01:57:12;;;;;;;4.47;4.10;;;;;;;18.70;100.00;98821.63;5029140;28;20331;-80
2022/08/17 01:59:39;;;;;;;4.97;4.20;;;;;;;18.64;100.00;98820.09;5028662;28;20241;-79
2022/08/17 02:02:06;;;;;;;4.90;4.50;;;;;;;18.61;100.00;98828.81;5033299;28;20231;-80
2022/08/17 02:04:33;;;;;;;4.47;4.10;;;;;;;18.58;100.00;98826.66;5031512;28;20724;-80
2022/08/17 02:07:00;;;;;;;4.57;4.27;;;;;;;18.57;100.00;98823.13;5029901;28;20240;-80
2022/08/17 02:09:28;;;;;;;4.73;4.30;;;;;;;18.46;100.00;98814.31;5025635;28;20235;-80
2022/08/17 02:11:57;;;;;;;4.83;4.43;;;;;;;18.40;100.00;98825.50;5023143;28;20687;-81
2022/08/17 02:14:24;;;;;;;5.53;4.50;;;;;;;18.39;100.00;98826.59;5025244;28;20240;-80
2022/08/17 02:16:51;;;;;;;5.07;4.57;;;;;;;18.32;100.00;98826.97;5029338;28;20329;-80
2022/08/17 02:19:19;;;;;;;4.50;4.03;;;;;;;18.26;100.00;98828.09;5026181;28;20232;-80
2022/08/17 02:21:47;;;;;;;5.00;4.60;;;;;;;18.19;100.00;98821.44;5027573;28;20259;-80
2022/08/17 02:24:18;;;;;;;4.80;4.43;;;;;;;18.13;100.00;98825.28;5025468;28;20320;-81
2022/08/17 02:27:05;;;;;;;4.63;4.20;;;;;;;18.12;100.00;98829.88;5024693;28;20230;-80
2022/08/17 02:29:32;;;;;;;4.80;4.40;;;;;;;18.09;100.00;98826.97;5032376;28;20238;-80
2022/08/17 02:32:00;;;;;;;5.00;4.60;;;;;;;18.04;100.00;98828.63;5031031;28;20251;-80
2022/08/17 02:34:27;;;;;;;4.80;4.50;;;;;;;18.01;100.00;98828.38;5049999;28;20233;-79
2022/08/17 02:36:54;;;;;;;4.57;4.27;;;;;;;17.95;100.00;98826.84;5050835;28;20229;-79
2022/08/17 02:39:21;;;;;;;4.63;4.33;;;;;;;17.92;100.00;98825.50;5057568;28;20231;-81
2022/08/17 02:41:47;;;;;;;5.10;4.60;;;;;;;17.87;100.00;98828.25;5037459;28;20234;-82
2022/08/17 02:44:14;;;;;;;5.00;4.60;;;;;;;17.84;100.00;98828.00;5036322;28;20323;-80
2022/08/17 02:47:02;;;;;;;4.83;4.43;;;;;;;17.80;100.00;98832.41;5035061;28;20235;-80
2022/08/17 02:49:29;;;;;;;4.80;4.50;;;;;;;17.76;100.00;98834.88;5029962;28;20239;-79
2022/08/17 02:51:56;;;;;;;4.63;4.23;;;;;;;17.76;100.00;98834.88;5034453;28;20262;-79
2022/08/17 02:54:24;;;;;;;4.70;4.40;;;;;;;17.76;100.00;98832.16;5027137;28;20233;-81
2022/08/17 02:57:08;;;;;;;4.50;4.20;;;;;;;17.77;100.00;98830.25;5047901;28;20248;-80
2022/08/17 02:59:34;;;;;;;4.90;4.43;;;;;;;17.74;100.00;98826.22;5057313;28;20239;-80
2022/08/17 03:02:03;;;;;;;4.60;4.30;;;;;;;17.78;100.00;98826.44;5055044;28;20741;-80
2022/08/17 03:04:30;;;;;;;5.50;4.50;;;;;;;17.71;100.00;98831.41;5052155;28;20644;-79
2022/08/17 03:07:01;;;;;;;5.00;4.60;;;;;;;17.67;100.00;98825.75;5060127;28;20765;-79
2022/08/17 03:09:28;;;;;;;5.40;4.90;;;;;;;17.67;100.00;98822.22;5058096;28;20234;-78
2022/08/17 03:12:11;;;;;;;4.70;4.23;;;;;;;17.72;100.00;98827.59;5056006;28;20650;-79
2022/08/17 03:14:39;;;;;;;4.60;4.20;;;;;;;17.70;100.00;98829.78;5060675;28;20225;-80
2022/08/17 03:17:08;;;;;;;4.80;4.40;;;;;;;17.70;100.00;98829.78;5050848;28;20231;-80
2022/08/17 03:19:36;;;;;;;4.80;4.30;;;;;;;17.66;100.00;98832.25;5062411;28;20237;-79
2022/08/17 03:22:08;;;;;;;4.47;4.17;;;;;;;17.63;100.00;98829.31;5050591;28;20706;-80
2022/08/17 03:24:55;;;;;;;5.03;4.53;;;;;;;17.64;100.00;98836.34;5047478;28;20318;-79
2022/08/17 03:27:22;;;;;;;4.90;4.40;;;;;;;17.59;100.00;98832.56;5053293;28;20231;-79
2022/08/17 03:29:48;;;;;;;4.83;4.43;;;;;;;17.59;100.00;98832.56;5054292;28;20702;-80
2022/08/17 03:32:15;;;;;;;4.77;4.37;;;;;;;17.56;100.00;98832.31;5052812;28;20236;-80
2022/08/17 03:34:42;;;;;;;5.40;4.83;;;;;;;17.50;100.00;98833.44;5052418;28;20250;-81
2022/08/17 03:37:08;;;;;;;4.80;4.40;;;;;;;17.46;100.00;98830.50;5052497;28;20245;-80
2022/08/17 03:39:35;;;;;;;5.00;4.37;;;;;;;17.45;100.00;98831.56;5051707;28;20706;-80
2022/08/17 03:42:13;;;;;;;5.20;4.80;;;;;;;17.47;100.00;98834.81;5054324;28;20218;-79
2022/08/17 03:44:58;;;;;;;4.83;4.33;;;;;;;17.51;100.00;98829.63;5050374;28;20236;-80
2022/08/17 03:58:27;;;;;;;5.53;4.77;;;;;;;17.49;100.00;98829.94;5055733;28;20243;-81
2022/08/17 04:00:54;;;;;;;5.00;4.60;;;;;;;17.46;100.00;98830.50;5028989;28;20318;-80
2022/08/17 04:03:20;;;;;;;6.07;4.53;;;;;;;17.45;100.00;98830.78;5026658;28;20235;-81
2022/08/17 04:05:47;;;;;;;5.30;4.80;;;;;;;17.43;100.00;98833.78;5029054;28;20728;-82
2022/08/17 04:08:14;;;;;;;5.27;4.40;;;;;;;17.45;100.00;98837.00;5031946;28;20240;-82
2022/08/17 04:10:40;;;;;;;5.33;4.93;;;;;;;17.45;100.00;98833.50;5026490;28;20226;-81
2022/08/17 04:13:11;;;;;;;4.83;4.43;;;;;;;17.49;100.00;98831.84;5026722;28;20230;-81
2022/08/17 04:15:37;;;;;;;5.13;4.70;;;;;;;17.51;100.00;98825.03;5029029;28;20602;-81
2022/08/17 04:18:04;;;;;;;5.20;4.73;;;;;;;17.47;100.00;98834.00;5031309;28;20313;-82
2022/08/17 04:20:33;;;;;;;6.07;5.47;;;;;;;17.47;100.00;98832.13;5030687;28;20231;-81
2022/08/17 04:23:13;;;;;;;5.00;4.60;;;;;;;17.50;100.00;98845.06;5027300;28;20313;-81
2022/08/17 04:25:43;;;;;;;5.00;4.60;;;;;;;17.55;100.00;98846.94;5030249;28;20231;-81
2022/08/17 04:28:10;;;;;;;5.37;4.87;;;;;;;17.60;100.00;98847.72;5022839;28;20331;-81
2022/08/17 04:30:43;;;;;;;5.50;4.77;;;;;;;17.65;100.00;98846.88;5042610;28;20240;-81
2022/08/17 04:33:14;;;;;;;5.63;5.03;;;;;;;17.74;100.00;98849.78;5022981;28;20222;-81
2022/08/17 04:35:46;;;;;;;5.40;4.90;;;;;;;17.81;100.00;98847.56;5030118;28;20293;-80
2022/08/17 04:38:16;;;;;;;4.97;4.57;;;;;;;17.93;100.00;98853.41;5022544;28;20222;-81
2022/08/17 04:43:30;;;;;;;6.63;4.70;;;;;;;18.22;100.00;98843.34;5029698;28;20777;-81
2022/08/17 04:46:03;;;;;;;5.27;4.63;;;;;;;18.38;100.00;98852.13;5023634;28;20304;-80
2022/08/17 04:48:34;;;;;;;5.23;4.80;;;;;;;18.51;100.00;98851.41;5026862;28;20654;-80
2022/08/17 04:51:12;;;;;;;4.93;4.53;;;;;;;18.68;100.00;98862.63;5032585;28;20325;-80
2022/08/17 04:53:41;;;;;;;5.20;4.80;;;;;;;18.81;100.00;98861.91;5048794;28;20710;-81
2022/08/17 04:56:09;;;;;;;5.63;5.03;;;;;;;19.00;100.00;98861.09;5049136;28;20350;-81
2022/08/17 04:58:43;;;;;;;5.77;4.90;;;;;;;19.13;100.00;98860.41;5047624;28;20298;-80
2022/08/17 05:01:09;;;;;;;4.93;4.53;;;;;;;19.26;100.00;98862.38;5048079;28;20241;-80
2022/08/17 05:03:36;;;;;;;5.30;4.80;;;;;;;19.43;100.00;98865.34;5044854;28;20220;-80
2022/08/17 05:06:03;;;;;;;5.33;4.40;;;;;;;19.57;100.00;98857.28;5046574;28;20311;-79
2022/08/17 05:08:30;;;;;;;5.47;4.93;;;;;;;19.70;100.00;98865.47;5046882;28;20226;-83
2022/08/17 05:10:57;;;;;;;5.17;4.17;;;;;;;19.89;100.00;98862.72;5050566;28;20257;-82
2022/08/17 05:13:25;;;;;;;5.30;4.80;;;;;;;20.06;100.00;98870.31;5017379;28;20700;-81
2022/08/17 05:16:00;;;;;;;4.87;4.37;;;;;;;20.21;100.00;98854.50;5020567;28;20321;-81
2022/08/17 05:18:28;;;;;;;5.27;4.77;;;;;;;20.38;100.00;98851.22;5022734;28;20234;-82
2022/08/17 05:20:55;;;;;;;4.90;4.30;;;;;;;20.54;100.00;98855.25;5040235;28;20302;-83
2022/08/17 05:23:24;;;;;;;4.73;4.00;;;;;;;20.67;100.00;98859.88;5054234;28;20279;-83
2022/08/17 05:25:54;;;;;;;4.47;4.07;;;;;;;20.84;100.00;98861.97;5031752;28;20228;-81
2022/08/17 05:28:22;;;;;;;6.70;4.47;;;;;;;20.96;100.00;98858.72;5036140;28;20247;-84
2022/08/17 05:30:55;;;;;;;4.87;4.47;;;;;;;21.18;100.00;98858.81;5043252;28;20235;-82
2022/08/17 05:33:24;;;;;;;6.20;4.40;;;;;;;21.30;100.00;98859.06;5030771;28;20324;-82
2022/08/17 05:35:53;;;;;;;4.53;4.03;;;;;;;21.48;100.00;98873.63;5035060;28;20688;-83
2022/08/17 05:38:22;;;;;;;4.43;3.90;;;;;;;21.62;100.00;98873.56;5052051;28;20327;-82
2022/08/17 05:40:49;;;;;;;6.90;4.15;;;;;;;21.75;100.00;98867.25;5031754;28;20228;-81
2022/08/17 05:43:26;;;;;;;5.77;3.97;;;;;;;21.83;100.00;98871.97;5041075;28;20239;-80
2022/08/17 05:46:04;;;;;;;5.35;4.35;;;;;;;22.01;96.58;98865.53;5046428;28;20233;-81
2022/08/17 05:48:37;;;;;;;4.43;3.78;;;;;;;22.07;91.29;98860.75;5037670;28;20233;-82
2022/08/17 05:51:35;;;;;;;6.00;3.92;;;;;;;22.16;90.65;98867.03;5017188;28;20233;-81
2022/08/17 05:54:20;;;;;;;5.07;4.20;;;;;;;22.34;91.67;98876.91;5025565;28;20264;-82
2022/08/17 05:57:06;;;;;;;4.65;3.83;;;;;;;22.53;91.08;98871.22;5024157;28;20824;-83
2022/08/17 05:59:32;;;;;;;4.18;3.33;;;;;;;22.73;89.94;98865.97;5024991;28;20252;-83
2022/08/17 06:02:07;;;;;;;4.32;3.88;;;;;;;22.90;88.46;98870.69;5025542;28;20322;-81
2022/08/17 06:05:00;;;;;;;4.32;3.95;;;;;;;23.03;87.41;98860.75;5021046;28;20654;-83
2022/08/17 06:07:31;;;;;;;3.90;3.60;;;;;;;23.15;83.90;98861.72;5044071;28;20237;-83
2022/08/17 06:10:13;;;;;;;4.20;3.80;;;;;;;23.28;83.60;98855.28;5049409;28;20238;-81
2022/08/17 06:13:02;;;;;;;6.95;3.78;;;;;;;23.35;82.30;98856.75;5051119;28;20251;-83
2022/08/17 06:15:46;;;;;;;6.35;4.30;;;;;;;23.49;81.25;98854.69;5041634;28;20236;-83
2022/08/17 06:18:13;;;;;;;5.47;3.67;;;;;;;23.63;79.06;98869.78;5048306;28;20289;-83
2022/08/17 06:20:49;;;;;;;6.43;3.92;;;;;;;23.74;75.84;98858.50;5036692;28;20266;-83
2022/08/17 06:23:41;;;;;;;4.55;3.60;;;;;;;23.88;73.09;98865.41;5028157;28;20231;-84
2022/08/17 06:26:21;;;;;;;4.88;3.60;;;;;;;24.00;71.02;98865.53;5039847;28;20284;-83
2022/08/17 06:29:02;;;;;;;5.13;3.65;;;;;;;24.16;70.32;98868.59;5026128;28;20689;-85
2022/08/17 06:31:33;;;;;;;7.22;3.65;;;;;;;24.30;71.24;98873.84;4994441;28;20246;-84
2022/08/17 06:34:02;;;;;;;5.00;3.58;;;;;;;24.43;70.56;98876.38;5032937;28;20751;-84
2022/08/17 06:37:00;;;;;;;4.78;3.50;;;;;;;24.60;69.95;98875.47;5043956;28;20222;-84
2022/08/17 06:40:00;;;;;;;7.07;3.65;;;;;;;24.80;69.63;98869.25;5055143;28;20232;-84
2022/08/17 06:42:33;;;;;;;5.05;3.50;;;;;;;24.94;68.88;98871.78;5037955;28;20256;-84
2022/08/17 06:45:30;;;;;;;5.15;3.58;;;;;;;25.08;66.76;98875.06;5052493;28;20230;-84
2022/08/17 06:48:07;;;;;;;4.05;3.67;;;;;;;25.24;63.11;98861.59;5029344;28;20775;-85
2022/08/17 06:50:38;;;;;;;3.58;3.28;;;;;;;25.36;60.96;98862.44;5009365;28;20240;-84
2022/08/17 06:53:30;;;;;;;4.03;3.15;;;;;;;25.44;60.67;98863.50;5025305;28;20234;-84
2022/08/17 06:56:13;;;;;;;4.22;3.15;;;;;;;25.43;61.58;98870.09;5034662;28;20242;-85
2022/08/17 06:58:42;;;;;;;3.60;3.00;;;;;;;25.56;60.71;98865.53;5025396;28;20239;-85
2022/08/17 07:01:13;;;;;;;3.28;3.03;;;;;;;25.70;60.22;98866.84;5022010;28;20283;-84
2022/08/17 07:03:48;;;;;;;3.03;2.80;;;;;;;25.76;60.43;98872.91;4998842;28;20255;-84
2022/08/17 07:06:20;;;;;;;3.75;3.15;;;;;;;25.88;57.69;98872.16;5034530;28;20779;-84
2022/08/17 07:08:53;;;;;;;3.40;2.95;;;;;;;26.07;53.64;98878.75;5015195;28;20241;-84
2022/08/17 07:11:31;;;;;;;3.58;2.85;;;;;;;26.16;54.55;98873.16;5045968;28;20235;-82
2022/08/17 07:14:38;;;;;;;4.40;3.47;;;;;;;26.35;56.28;98881.69;5025425;28;20244;-84
2022/08/17 07:17:10;;;;;;;3.40;3.00;;;;;;;26.48;54.66;98877.00;5025735;28;20264;-82
2022/08/17 07:19:39;;;;;;;3.10;2.90;;;;;;;26.66;53.21;98875.63;5029208;28;20226;-84
2022/08/17 07:22:40;;;;;;;3.30;3.00;;;;;;;26.80;52.61;98873.31;5029067;28;20807;-83
2022/08/17 07:25:25;;;;;;;3.65;2.90;;;;;;;26.95;50.78;98871.84;5033028;28;20250;-84
2022/08/17 07:27:54;;;;;;;3.20;3.00;;;;;;;27.07;50.74;98878.13;5003361;28;20785;-82
2022/08/17 07:30:24;;;;;;;3.05;2.72;;;;;;;27.20;52.02;98872.63;5030465;28;20225;-83
2022/08/17 07:33:01;;;;;;;3.58;3.00;;;;;;;27.15;47.63;98874.47;5010692;28;20638;-83
2022/08/17 07:35:27;;;;;;;3.20;2.92;;;;;;;27.27;47.80;98872.81;5018146;28;20238;-84
2022/08/17 07:38:22;;;;;;;3.20;2.65;;;;;;;27.36;45.56;98876.22;5015643;28;20242;-83
2022/08/17 07:41:01;;;;;;;2.53;2.30;;;;;;;27.48;46.81;98874.25;5000676;28;20698;-83
2022/08/17 07:43:29;;;;;;;2.65;2.47;;;;;;;27.61;47.54;98888.00;5044447;28;20239;-83
2022/08/17 07:49:06;;;;;;;2.58;2.42;;;;;;;27.65;46.53;98866.88;5046441;28;20233;-83
2022/08/17 07:51:38;;;;;;;2.97;2.75;;;;;;;27.75;46.60;98866.38;5051005;28;20734;-82
2022/08/17 07:54:14;;;;;;;4.65;2.95;;;;;;;27.91;46.48;98867.19;5048385;28;20234;-84
2022/08/17 07:56:46;;;;;;;2.95;2.75;;;;;;;27.96;45.10;98865.00;5046373;28;20676;-84
2022/08/17 07:59:19;;;;;;;3.72;2.88;;;;;;;28.05;44.97;98870.34;5063758;28;20230;-83
2022/08/17 08:01:55;;;;;;;2.67;2.47;;;;;;;28.15;44.33;98866.28;5049264;28;20233;-83
2022/08/17 08:04:39;;;;;;;2.78;2.42;;;;;;;28.24;43.56;98858.66;5047740;28;20263;-83
2022/08/17 08:07:41;;;;;;;2.67;2.47;;;;;;;28.30;42.98;98866.31;5048743;28;20240;-83
2022/08/17 08:10:14;;;;;;;2.85;2.65;;;;;;;28.24;43.75;98856.72;5044907;28;20258;-83
2022/08/17 08:12:47;;;;;;;2.90;2.55;;;;;;;28.43;43.13;98856.00;5018410;28;20237;-84
2022/08/17 08:15:22;;;;;;;2.72;2.53;;;;;;;28.62;42.98;98858.03;5049267;28;20241;-83
2022/08/17 08:17:59;;;;;;;2.72;2.50;;;;;;;28.64;43.94;98852.97;5042269;28;20229;-83
2022/08/17 08:20:39;;;;;;;3.42;2.47;;;;;;;28.69;44.75;98850.75;5049282;28;20229;-83
2022/08/17 08:23:41;;;;;;;2.88;2.67;;;;;;;28.77;43.04;98849.78;5029093;28;20234;-83
2022/08/17 08:26:16;;;;;;;2.80;2.60;;;;;;;28.83;43.71;98847.56;5027990;28;20249;-83
2022/08/17 08:29:02;;;;;;;4.30;2.80;;;;;;;28.74;44.07;98844.19;5044934;28;20228;-84
2022/08/17 08:31:56;;;;;;;2.80;2.50;;;;;;;28.81;44.32;98842.38;5064917;28;20743;-83
2022/08/17 08:34:28;;;;;;;2.95;2.70;;;;;;;28.99;43.21;98844.75;5052703;28;20245;-82
2022/08/17 08:37:20;;;;;;;2.75;2.55;;;;;;;29.23;42.73;98852.75;5034581;28;20218;-83
2022/08/17 08:40:16;;;;;;;2.92;2.63;;;;;;;29.37;42.08;98850.34;5001486;28;20249;-83
2022/08/17 08:42:55;;;;;;;2.95;2.70;;;;;;;29.46;42.13;98850.91;5014462;28;20225;-83
2022/08/17 08:45:48;;;;;;;3.08;2.63;;;;;;;29.62;41.21;98848.91;5042992;28;20224;-83
2022/08/17 08:48:35;;;;;;;3.00;2.78;;;;;;;29.57;42.42;98854.69;5047443;28;20233;-84
2022/08/17 08:51:26;;;;;;;3.53;3.00;;;;;;;29.77;41.56;98844.41;5049110;28;20701;-83
2022/08/17 08:54:02;;;;;;;3.28;2.97;;;;;;;29.85;42.07;98848.94;5062704;28;20228;-81
2022/08/17 08:56:47;;;;;;;3.38;3.08;;;;;;;30.04;40.19;98853.66;5036635;28;20221;-83
2022/08/17 08:59:39;;;;;;;2.90;2.70;;;;;;;30.16;42.11;98848.75;5048757;28;20233;-83
2022/08/17 09:02:18;;;;;;;3.30;3.00;;;;;;;30.26;40.57;98849.28;5046774;28;20325;-83
2022/08/17 09:05:30;;;;;;;4.18;3.28;;;;;;;30.44;40.21;98839.34;5047788;28;20229;-83
2022/08/17 09:08:11;;;;;;;3.92;3.55;;;;;;;30.45;41.52;98839.00;5029068;28;20241;-84
2022/08/17 09:11:20;;;;;;;6.10;3.10;;;;;;;30.70;39.78;98849.66;4992430;28;20226;-84
2022/08/17 09:14:15;;;;;;;3.50;3.03;;;;;;;30.87;39.07;98844.38;5015354;28;20258;-81
2022/08/17 09:16:54;;;;;;;5.68;3.30;;;;;;;30.99;38.21;98846.13;5046870;28;20229;-84
2022/08/17 09:19:48;;;;;;;3.53;2.80;;;;;;;31.06;39.22;98840.72;5045853;28;20226;-83
2022/08/17 09:22:24;;;;;;;5.80;3.20;;;;;;;31.13;39.60;98845.53;5039070;28;20276;-81
2022/08/17 09:25:07;;;;;;;3.70;3.28;;;;;;;31.31;37.76;98841.84;5032080;28;20233;-83
2022/08/17 09:27:52;;;;;;;3.75;3.45;;;;;;;31.17;38.42;98855.50;5043232;28;20225;-83
2022/08/17 09:30:20;;;;;;;4.43;3.70;;;;;;;31.30;37.29;98842.25;5046175;28;20233;-82
2022/08/17 09:32:53;;;;;;;5.85;3.33;;;;;;;31.39;37.17;98840.78;5030937;28;20275;-83
2022/08/17 09:35:23;;;;;;;3.83;3.33;;;;;;;31.41;37.39;98845.91;5048402;28;20230;-83
2022/08/17 09:38:19;;;;;;;4.05;3.15;;;;;;;31.58;37.41;98841.81;5041784;28;20232;-83
2022/08/17 09:41:10;;;;;;;5.68;3.45;;;;;;;31.72;37.22;98841.97;5026271;28;20233;-83
2022/08/17 09:43:59;;;;;;;3.80;3.50;;;;;;;31.56;36.80;98836.66;5030291;28;20233;-83
2022/08/17 09:46:38;;;;;;;3.80;3.50;;;;;;;31.74;36.53;98836.84;5040705;28;20719;-83
2022/08/17 09:49:13;;;;;;;5.32;3.65;;;;;;;31.94;36.19;98831.91;5031443;28;20234;-83
2022/08/17 09:51:51;;;;;;;4.90;3.28;;;;;;;32.11;36.47;98840.41;5035629;28;20229;-83
2022/08/17 09:54:27;;;;;;;3.85;3.35;;;;;;;32.29;35.52;98826.72;5035472;28;20778;-83
2022/08/17 09:57:42;;;;;;;3.85;3.55;;;;;;;32.38;34.80;98827.22;5045980;28;20237;-81
2022/08/17 10:00:28;;;;;;;4.05;3.58;;;;;;;32.55;35.22;98829.31;5044292;28;20249;-84
2022/08/17 10:03:18;;;;;;;3.85;3.50;;;;;;;32.68;34.71;98832.59;5037461;28;20233;-81
2022/08/17 10:06:09;;;;;;;3.63;3.30;;;;;;;32.81;34.35;98813.66;5040260;28;20795;-83
2022/08/17 10:09:06;;;;;;;8.75;3.30;;;;;;;32.83;33.82;98806.56;5038609;28;20237;-83
2022/08/17 10:14:43;;;;;;;3.80;3.00;;;;;;;32.92;34.70;98804.25;5040066;28;20225;-83
2022/08/17 10:17:21;;;;;;;5.45;3.40;;;;;;;32.72;35.02;98811.25;5014408;28;20745;-81
2022/08/17 10:19:48;;;;;;;3.78;3.47;;;;;;;32.79;34.58;98804.94;5042882;28;20728;-82
2022/08/17 10:28:27;;;;;;;4.85;3.55;;;;;;;33.43;32.99;98806.09;5050805;28;20326;-83
2022/08/17 10:30:59;;;;;;;4.38;3.50;;;;;;;33.53;32.57;98797.00;5050622;28;20311;-83
2022/08/17 10:33:56;;;;;;;3.75;3.38;;;;;;;33.48;31.73;98794.59;5045222;28;20221;-83
2022/08/17 10:36:41;;;;;;;3.70;3.40;;;;;;;33.48;31.79;98803.72;5045313;28;20256;-83
2022/08/17 10:39:44;;;;;;;3.83;3.40;;;;;;;33.41;32.34;98794.59;5050551;28;20225;-83
2022/08/17 10:42:21;;;;;;;4.00;3.30;;;;;;;33.32;32.58;98792.16;5048649;28;20240;-82
2022/08/17 10:45:25;;;;;;;3.80;3.50;;;;;;;33.52;32.06;98787.06;5047380;28;20311;-83
2022/08/17 10:48:35;;;;;;;3.85;3.55;;;;;;;33.37;32.31;98785.44;5042334;28;20250;-84
2022/08/17 10:51:07;;;;;;;4.00;3.60;;;;;;;33.47;32.06;98781.91;5048087;28;20325;-83
2022/08/17 10:53:34;;;;;;;3.85;3.40;;;;;;;33.54;32.79;98784.72;5053448;28;20244;-83
2022/08/17 10:56:13;;;;;;;3.53;3.28;;;;;;;33.66;32.19;98780.75;5048143;28;20283;-80
2022/08/17 10:58:54;;;;;;;3.60;3.30;;;;;;;33.80;31.57;98775.25;5051864;28;20225;-83
2022/08/17 11:01:42;;;;;;;4.50;3.28;;;;;;;33.95;31.16;98777.66;5053063;28;20707;-83
2022/08/17 11:04:19;;;;;;;4.78;3.60;;;;;;;34.18;30.96;98780.09;5054255;28;20236;-83
2022/08/17 11:07:26;;;;;;;3.83;3.20;;;;;;;34.23;30.36;98770.56;5039611;28;20226;-83
2022/08/17 11:10:15;;;;;;;4.43;3.40;;;;;;;34.43;29.51;98783.66;5020754;28;20234;-83
2022/08/17 11:12:46;;;;;;;3.50;3.20;;;;;;;34.27;29.66;98777.69;5014909;28;20233;-82
2022/08/17 11:15:35;;;;;;;3.50;3.20;;;;;;;34.55;29.27;98767.75;5057595;28;20233;-81
2022/08/17 11:18:31;;;;;;;3.55;3.30;;;;;;;34.66;28.83;98765.75;5052149;28;20264;-81
2022/08/17 11:21:16;;;;;;;3.60;3.28;;;;;;;34.76;28.83;98771.28;5043380;28;20233;-83
2022/08/17 11:23:58;;;;;;;3.45;3.13;;;;;;;34.86;28.15;98767.69;5044116;28;20656;-83
2022/08/17 11:26:31;;;;;;;4.90;3.35;;;;;;;34.49;29.42;98759.00;5048572;28;20241;-82
2022/08/17 11:29:00;;;;;;;3.45;3.10;;;;;;;34.48;29.50;98749.09;5041706;28;20633;-83
2022/08/17 11:31:35;;;;;;;3.28;3.00;;;;;;;34.68;29.54;98757.81;5050784;28;20236;-83
2022/08/17 11:34:18;;;;;;;3.40;3.10;;;;;;;34.88;28.88;98756.97;5048405;28;20230;-83
2022/08/17 11:37:24;;;;;;;3.85;3.55;;;;;;;34.95;28.70;98764.47;5036558;28;20681;-83
2022/08/17 11:40:05;;;;;;;3.88;3.45;;;;;;;35.13;27.85;98758.88;5028640;28;20283;-83
2022/08/17 11:42:56;;;;;;;3.85;3.55;;;;;;;34.89;27.60;98753.00;5043073;28;20249;-83
2022/08/17 11:45:39;;;;;;;3.35;3.05;;;;;;;34.86;28.02;98753.78;5025103;28;20281;-82
2022/08/17 11:51:33;;;;;;;3.97;3.50;;;;;;;34.57;29.03;98743.91;5019739;28;20284;-81
2022/08/17 11:54:09;;;;;;;3.80;3.50;;;;;;;34.68;29.06;98741.91;5026611;28;20233;-83
2022/08/17 11:57:25;;;;;;;4.00;3.60;;;;;;;34.52;29.07;98741.53;5023055;28;20245;-83
2022/08/17 12:00:09;;;;;;;4.22;3.25;;;;;;;34.64;29.41;98746.66;5025837;28;20308;-82
2022/08/17 12:02:41;;;;;;;4.25;3.28;;;;;;;34.77;28.72;98749.81;5023727;28;21470;-81
2022/08/17 12:05:15;;;;;;;3.30;3.10;;;;;;;34.98;28.25;98747.00;5035485;28;20226;-83
2022/08/17 12:07:55;;;;;;;3.78;3.47;;;;;;;35.12;28.15;98729.44;5060839;28;20224;-83
2022/08/17 12:10:30;;;;;;;3.75;3.30;;;;;;;35.10;27.86;98729.03;5024777;28;20233;-80
2022/08/17 12:12:58;;;;;;;4.00;3.60;;;;;;;35.21;27.49;98725.03;5028261;28;20238;-83
2022/08/17 12:15:35;;;;;;;3.70;3.40;;;;;;;34.89;28.96;98724.38;5044651;28;20237;-83
2022/08/17 12:18:02;;;;;;;3.80;3.50;;;;;;;34.99;28.22;98717.16;5028404;28;20324;-82
2022/08/17 12:20:33;;;;;;;3.83;3.45;;;;;;;34.87;28.70;98724.75;5037430;28;20318;-83
2022/08/17 12:23:18;;;;;;;3.35;3.05;;;;;;;34.92;28.55;98729.13;5034204;28;20256;-83
2022/08/17 12:25:58;;;;;;;3.70;3.40;;;;;;;34.99;27.95;98723.53;5051309;28;20233;-84
2022/08/17 12:28:27;;;;;;;4.03;3.60;;;;;;;35.04;28.42;98722.31;5027241;28;20357;-84
2022/08/17 12:31:05;;;;;;;3.58;3.33;;;;;;;34.84;28.00;98725.56;5002816;28;20246;-83
2022/08/17 12:33:35;;;;;;;3.80;3.50;;;;;;;34.80;28.12;98712.88;5011416;28;20238;-84
2022/08/17 12:36:04;;;;;;;3.58;3.28;;;;;;;35.02;27.89;98700.44;5027661;28;20855;-84
2022/08/17 12:38:33;;;;;;;3.47;3.20;;;;;;;35.22;27.66;98701.59;5029623;28;20696;-85
2022/08/17 12:44:00;;;;;;;3.83;3.40;;;;;;;35.72;27.86;98704.84;5011652;28;20230;-84